首页
METAR-TAF:

METAR-TAF

机场 :

莫比尔, 阿拉巴马州, 美国

纬度: 30-36-50N, 经度: 088-03-48W, 海拔: 7米

当前天气观测

该预报发布于9分钟前的20:53 UTC
风速7节,风向北转东北
温度 20°C
湿度 15%
气压 1028 hPa
能見度: 16.1公里
天空无云

METAR: KBFM 072053Z 02007KT 10SM CLR 20/M07 A3036 RMK AO2 SLP279 T02001072 56014

时间: 15:02 (21:02 UTC)

预报

该预报发布于3小时和42分钟前的17:20 UTC
预报有效从07日的 18点(UTC)到 08日的 18点(UTC)
风速7节,风向北转东北
能見度: 10公里
少量云层高于25000英尺
从 08日的 0000点(UTC)
风速5节,风向
能見度: 10公里
天空无云
从 08日的 1100点(UTC)
风速6节,风向东北
能見度: 10公里
天空无云
从 08日的 1500点(UTC)
风速7节,风向东转东北
能見度: 10公里
天空无云

TAF: KBFM 071720Z 0718/0818 03007KT P6SM FEW250 FM080000 01005KT P6SM SKC FM081100 04006KT P6SM SKC FM081500 07007KT P6SM SKC

超过4000个机场的气象观测和天气预报(METAR&TAF报告)。

可查询的气象台以黄色和红色小点在地图上表示。

将鼠标移到小点上方,可查看气象台名称。

然后点击查看天气观测和预报。

如需切换地图:点击带黑十字的绿色按钮放大地图;点击带横线的绿色按钮缩小地图;或者点击绿色箭头查看邻近地区的地图。


METAR-TAF: